sensor_id;sensor_type;location;lat;lon;timestamp;pressure;altitude;pressure_sealevel;temperature;humidity
24752;BME280;27246;52.376;4.628;2023-02-13T00:04:20;103680.16;;;7.59;70.88
24752;BME280;27246;52.376;4.628;2023-02-13T00:09:22;103678.69;;;7.68;71.03
24752;BME280;27246;52.376;4.628;2023-02-13T00:14:24;103676.44;;;7.74;71.03
24752;BME280;27246;52.376;4.628;2023-02-13T00:19:25;103682.03;;;7.73;70.83
24752;BME280;27246;52.376;4.628;2023-02-13T00:24:27;103676.53;;;7.73;70.87
24752;BME280;27246;52.376;4.628;2023-02-13T00:29:29;103681.03;;;7.59;71.19
24752;BME280;27246;52.376;4.628;2023-02-13T00:34:30;103667.59;;;7.55;71.64
24752;BME280;27246;52.376;4.628;2023-02-13T00:39:32;103664.47;;;7.61;71.76
24752;BME280;27246;52.376;4.628;2023-02-13T00:44:34;103654.06;;;7.66;71.63
24752;BME280;27246;52.376;4.628;2023-02-13T00:49:36;103665.16;;;7.65;72.08
24752;BME280;27246;52.376;4.628;2023-02-13T00:54:37;103670.75;;;7.63;72.10
24752;BME280;27246;52.376;4.628;2023-02-13T00:59:39;103663.88;;;7.70;72.16
24752;BME280;27246;52.376;4.628;2023-02-13T01:04:41;103659.56;;;7.66;72.03
24752;BME280;27246;52.376;4.628;2023-02-13T01:09:43;103655.16;;;7.64;72.36
24752;BME280;27246;52.376;4.628;2023-02-13T01:14:45;103644.50;;;7.73;72.17
24752;BME280;27246;52.376;4.628;2023-02-13T01:19:46;103646.63;;;7.68;72.25
24752;BME280;27246;52.376;4.628;2023-02-13T01:24:49;103651.94;;;7.71;72.28
24752;BME280;27246;52.376;4.628;2023-02-13T01:29:50;103642.63;;;7.59;72.80
24752;BME280;27246;52.376;4.628;2023-02-13T01:34:52;103645.75;;;7.53;73.01
24752;BME280;27246;52.376;4.628;2023-02-13T01:39:54;103647.00;;;7.48;73.29
24752;BME280;27246;52.376;4.628;2023-02-13T01:44:59;103654.53;;;7.44;73.84
24752;BME280;27246;52.376;4.628;2023-02-13T01:55:08;103656.16;;;7.32;74.55
24752;BME280;27246;52.376;4.628;2023-02-13T02:00:13;103647.94;;;7.32;75.03
24752;BME280;27246;52.376;4.628;2023-02-13T02:05:19;103654.75;;;7.41;74.98
24752;BME280;27246;52.376;4.628;2023-02-13T02:10:23;103652.06;;;7.39;75.41
24752;BME280;27246;52.376;4.628;2023-02-13T02:15:25;103646.03;;;7.49;75.09
24752;BME280;27246;52.376;4.628;2023-02-13T02:21:02;103638.22;;;7.57;74.81
24752;BME280;27246;52.376;4.628;2023-02-13T02:42:41;103621.06;;;7.23;76.04
24752;BME280;27246;52.376;4.628;2023-02-13T02:47:39;103629.69;;;7.17;76.72
24752;BME280;27246;52.376;4.628;2023-02-13T02:58:18;103622.66;;;7.27;77.03
24752;BME280;27246;52.376;4.628;2023-02-13T03:03:40;103621.47;;;7.31;76.69
24752;BME280;27246;52.376;4.628;2023-02-13T03:09:03;103624.44;;;7.28;76.57
24752;BME280;27246;52.376;4.628;2023-02-13T03:14:27;103624.91;;;7.20;77.25
24752;BME280;27246;52.376;4.628;2023-02-13T03:25:21;103620.50;;;7.32;77.09
24752;BME280;27246;52.376;4.628;2023-02-13T03:36:16;103600.47;;;7.16;77.71
24752;BME280;27246;52.376;4.628;2023-02-13T03:41:44;103609.19;;;7.08;77.96
24752;BME280;27246;52.376;4.628;2023-02-13T03:46:51;103608.91;;;7.13;78.50
24752;BME280;27246;52.376;4.628;2023-02-13T03:57:17;103605.56;;;7.08;78.73
24752;BME280;27246;52.376;4.628;2023-02-13T04:02:50;103608.50;;;7.05;79.07
24752;BME280;27246;52.376;4.628;2023-02-13T04:07:54;103603.59;;;7.10;79.05
24752;BME280;27246;52.376;4.628;2023-02-13T04:12:59;103599.09;;;7.09;79.00
24752;BME280;27246;52.376;4.628;2023-02-13T04:23:08;103595.09;;;7.00;79.77
24752;BME280;27246;52.376;4.628;2023-02-13T04:28:10;103593.31;;;6.99;79.89
24752;BME280;27246;52.376;4.628;2023-02-13T04:33:12;103592.50;;;6.97;80.29
24752;BME280;27246;52.376;4.628;2023-02-13T04:38:14;103598.50;;;7.04;80.04
24752;BME280;27246;52.376;4.628;2023-02-13T04:43:15;103591.84;;;7.08;79.85
24752;BME280;27246;52.376;4.628;2023-02-13T04:48:17;103591.06;;;7.06;79.83
24752;BME280;27246;52.376;4.628;2023-02-13T04:53:19;103587.91;;;6.97;80.24
24752;BME280;27246;52.376;4.628;2023-02-13T04:58:20;103577.56;;;7.02;80.35
24752;BME280;27246;52.376;4.628;2023-02-13T05:03:22;103590.56;;;6.99;80.42
24752;BME280;27246;52.376;4.628;2023-02-13T05:08:24;103581.47;;;6.98;80.69
24752;BME280;27246;52.376;4.628;2023-02-13T05:13:25;103578.09;;;6.93;80.64
24752;BME280;27246;52.376;4.628;2023-02-13T05:18:28;103577.06;;;6.96;80.87
24752;BME280;27246;52.376;4.628;2023-02-13T05:23:29;103580.22;;;7.04;80.42
24752;BME280;27246;52.376;4.628;2023-02-13T05:28:31;103574.91;;;7.01;80.56
24752;BME280;27246;52.376;4.628;2023-02-13T05:33:51;103584.91;;;7.02;80.61
24752;BME280;27246;52.376;4.628;2023-02-13T05:38:53;103575.53;;;7.06;80.43
24752;BME280;27246;52.376;4.628;2023-02-13T05:43:54;103586.38;;;7.08;80.28
24752;BME280;27246;52.376;4.628;2023-02-13T05:48:56;103585.13;;;7.13;80.31
24752;BME280;27246;52.376;4.628;2023-02-13T05:53:58;103583.84;;;7.19;80.07
24752;BME280;27246;52.376;4.628;2023-02-13T05:58:59;103580.13;;;7.20;80.27
24752;BME280;27246;52.376;4.628;2023-02-13T06:04:01;103579.00;;;7.24;79.78
24752;BME280;27246;52.376;4.628;2023-02-13T06:09:04;103583.47;;;7.25;79.65
24752;BME280;27246;52.376;4.628;2023-02-13T06:14:06;103579.94;;;7.23;80.28
24752;BME280;27246;52.376;4.628;2023-02-13T06:19:08;103577.97;;;7.11;80.50
24752;BME280;27246;52.376;4.628;2023-02-13T06:24:09;103586.78;;;7.16;80.71
24752;BME280;27246;52.376;4.628;2023-02-13T06:29:11;103587.78;;;7.15;80.82
24752;BME280;27246;52.376;4.628;2023-02-13T06:34:13;103573.19;;;7.14;81.21
24752;BME280;27246;52.376;4.628;2023-02-13T06:39:15;103578.75;;;7.13;81.28
24752;BME280;27246;52.376;4.628;2023-02-13T06:44:16;103576.41;;;7.07;81.66
24752;BME280;27246;52.376;4.628;2023-02-13T06:49:18;103578.34;;;7.05;81.76
24752;BME280;27246;52.376;4.628;2023-02-13T06:54:19;103573.66;;;7.07;81.81
24752;BME280;27246;52.376;4.628;2023-02-13T06:59:26;103580.88;;;7.08;82.03
24752;BME280;27246;52.376;4.628;2023-02-13T07:04:28;103592.75;;;7.08;81.93
24752;BME280;27246;52.376;4.628;2023-02-13T07:09:30;103592.38;;;7.14;82.06
24752;BME280;27246;52.376;4.628;2023-02-13T07:14:32;103597.56;;;7.19;81.80
24752;BME280;27246;52.376;4.628;2023-02-13T07:19:34;103604.78;;;7.20;82.22
24752;BME280;27246;52.376;4.628;2023-02-13T07:24:35;103607.19;;;7.26;82.41
24752;BME280;27246;52.376;4.628;2023-02-13T07:29:39;103609.34;;;7.35;82.18
24752;BME280;27246;52.376;4.628;2023-02-13T07:34:41;103599.38;;;7.34;81.77
24752;BME280;27246;52.376;4.628;2023-02-13T07:40:02;103609.88;;;7.42;81.75
24752;BME280;27246;52.376;4.628;2023-02-13T07:45:07;103605.63;;;7.36;82.02
24752;BME280;27246;52.376;4.628;2023-02-13T07:50:09;103612.47;;;7.29;82.07
24752;BME280;27246;52.376;4.628;2023-02-13T07:55:11;103619.13;;;7.25;82.26
24752;BME280;27246;52.376;4.628;2023-02-13T08:00:14;103621.31;;;7.34;82.71
24752;BME280;27246;52.376;4.628;2023-02-13T08:05:16;103616.38;;;7.25;82.77
24752;BME280;27246;52.376;4.628;2023-02-13T08:10:18;103616.94;;;7.16;83.22
24752;BME280;27246;52.376;4.628;2023-02-13T08:15:38;103616.75;;;7.19;84.02
24752;BME280;27246;52.376;4.628;2023-02-13T08:20:40;103635.06;;;7.18;84.48
24752;BME280;27246;52.376;4.628;2023-02-13T08:25:41;103628.88;;;7.15;84.11
24752;BME280;27246;52.376;4.628;2023-02-13T08:30:43;103616.94;;;7.16;84.27
24752;BME280;27246;52.376;4.628;2023-02-13T08:35:45;103614.97;;;7.18;84.36
24752;BME280;27246;52.376;4.628;2023-02-13T08:40:47;103615.59;;;7.23;84.43
24752;BME280;27246;52.376;4.628;2023-02-13T08:45:48;103611.28;;;7.19;84.46
24752;BME280;27246;52.376;4.628;2023-02-13T08:50:51;103609.50;;;7.18;84.74
24752;BME280;27246;52.376;4.628;2023-02-13T08:55:53;103620.97;;;7.25;84.79
24752;BME280;27246;52.376;4.628;2023-02-13T09:00:56;103610.50;;;7.31;84.74
24752;BME280;27246;52.376;4.628;2023-02-13T09:05:59;103622.56;;;7.29;84.81
24752;BME280;27246;52.376;4.628;2023-02-13T09:11:03;103623.34;;;7.31;84.90
24752;BME280;27246;52.376;4.628;2023-02-13T09:16:09;103615.81;;;7.34;85.24
24752;BME280;27246;52.376;4.628;2023-02-13T09:21:11;103629.31;;;7.37;85.61
24752;BME280;27246;52.376;4.628;2023-02-13T09:26:14;103614.38;;;7.43;85.49
24752;BME280;27246;52.376;4.628;2023-02-13T09:31:18;103622.31;;;7.48;85.58
24752;BME280;27246;52.376;4.628;2023-02-13T09:36:22;103619.97;;;7.56;85.76
24752;BME280;27246;52.376;4.628;2023-02-13T09:41:27;103619.19;;;7.54;85.83
24752;BME280;27246;52.376;4.628;2023-02-13T09:46:35;103618.53;;;7.65;86.05
24752;BME280;27246;52.376;4.628;2023-02-13T09:51:37;103616.84;;;7.62;85.99
24752;BME280;27246;52.376;4.628;2023-02-13T09:56:49;103609.22;;;7.67;86.97
24752;BME280;27246;52.376;4.628;2023-02-13T10:02:00;103608.22;;;7.82;86.70
24752;BME280;27246;52.376;4.628;2023-02-13T10:07:25;103606.25;;;7.85;86.48
24752;BME280;27246;52.376;4.628;2023-02-13T10:17:53;103616.19;;;7.58;86.71
24752;BME280;27246;52.376;4.628;2023-02-13T10:23:19;103607.16;;;7.71;86.17
24752;BME280;27246;52.376;4.628;2023-02-13T10:28:37;103600.38;;;7.76;86.44
24752;BME280;27246;52.376;4.628;2023-02-13T10:33:48;103603.31;;;7.88;86.05
24752;BME280;27246;52.376;4.628;2023-02-13T11:00:11;103601.56;;;8.01;85.78
24752;BME280;27246;52.376;4.628;2023-02-13T11:05:20;103599.00;;;7.98;85.86
24752;BME280;27246;52.376;4.628;2023-02-13T11:10:24;103593.09;;;8.04;85.84
24752;BME280;27246;52.376;4.628;2023-02-13T11:15:29;103584.28;;;8.13;86.34
24752;BME280;27246;52.376;4.628;2023-02-13T11:20:40;103575.44;;;8.50;85.26
24752;BME280;27246;52.376;4.628;2023-02-13T11:26:01;103570.16;;;8.47;83.86
24752;BME280;27246;52.376;4.628;2023-02-13T11:36:23;103558.88;;;8.37;84.21
24752;BME280;27246;52.376;4.628;2023-02-13T11:41:38;103556.56;;;8.31;83.87
24752;BME280;27246;52.376;4.628;2023-02-13T11:46:52;103551.75;;;8.34;84.32
24752;BME280;27246;52.376;4.628;2023-02-13T11:51:59;103548.94;;;8.49;84.68
24752;BME280;27246;52.376;4.628;2023-02-13T12:02:17;103545.16;;;8.64;83.08
24752;BME280;27246;52.376;4.628;2023-02-13T12:12:34;103524.00;;;9.05;83.00
24752;BME280;27246;52.376;4.628;2023-02-13T12:17:42;103524.13;;;9.41;81.18
24752;BME280;27246;52.376;4.628;2023-02-13T12:28:12;103513.88;;;9.69;79.98
24752;BME280;27246;52.376;4.628;2023-02-13T12:33:21;103511.56;;;9.63;77.76
24752;BME280;27246;52.376;4.628;2023-02-13T12:38:55;103503.06;;;9.66;77.59
24752;BME280;27246;52.376;4.628;2023-02-13T13:00:26;103500.72;;;9.49;77.70
24752;BME280;27246;52.376;4.628;2023-02-13T13:16:19;103484.31;;;9.47;76.99
24752;BME280;27246;52.376;4.628;2023-02-13T13:26:45;103473.97;;;9.51;77.76
24752;BME280;27246;52.376;4.628;2023-02-13T13:31:56;103465.69;;;9.51;76.57
24752;BME280;27246;52.376;4.628;2023-02-13T13:42:39;103457.56;;;9.49;77.71
24752;BME280;27246;52.376;4.628;2023-02-13T13:53:14;103445.88;;;9.46;78.20
24752;BME280;27246;52.376;4.628;2023-02-13T14:03:41;103424.84;;;9.57;78.17
24752;BME280;27246;52.376;4.628;2023-02-13T14:13:46;103426.47;;;9.60;77.80
24752;BME280;27246;52.376;4.628;2023-02-13T14:18:47;103422.50;;;9.64;77.28
24752;BME280;27246;52.376;4.628;2023-02-13T14:23:51;103433.66;;;9.63;77.70
24752;BME280;27246;52.376;4.628;2023-02-13T14:29:12;103437.38;;;9.61;77.22
24752;BME280;27246;52.376;4.628;2023-02-13T14:34:19;103432.63;;;9.64;77.03
24752;BME280;27246;52.376;4.628;2023-02-13T14:39:29;103433.09;;;9.57;77.51
24752;BME280;27246;52.376;4.628;2023-02-13T14:44:44;103430.75;;;9.64;77.45
24752;BME280;27246;52.376;4.628;2023-02-13T14:49:48;103418.13;;;9.61;77.67
24752;BME280;27246;52.376;4.628;2023-02-13T14:54:54;103410.63;;;9.64;77.57
24752;BME280;27246;52.376;4.628;2023-02-13T15:00:03;103412.72;;;9.60;77.76
24752;BME280;27246;52.376;4.628;2023-02-13T15:05:13;103407.00;;;9.63;77.87
24752;BME280;27246;52.376;4.628;2023-02-13T15:10:35;103409.19;;;9.58;76.40
24752;BME280;27246;52.376;4.628;2023-02-13T15:15:41;103413.06;;;9.55;75.69
24752;BME280;27246;52.376;4.628;2023-02-13T15:20:43;103413.06;;;9.55;75.66
24752;BME280;27246;52.376;4.628;2023-02-13T15:25:45;103413.06;;;9.55;75.38
24752;BME280;27246;52.376;4.628;2023-02-13T15:31:04;103405.47;;;9.59;75.18
24752;BME280;27246;52.376;4.628;2023-02-13T15:36:15;103408.44;;;9.56;75.89
24752;BME280;27246;52.376;4.628;2023-02-13T15:41:21;103408.44;;;9.56;76.02
24752;BME280;27246;52.376;4.628;2023-02-13T15:46:30;103406.16;;;9.50;76.50
24752;BME280;27246;52.376;4.628;2023-02-13T15:51:33;103404.41;;;9.49;76.90
24752;BME280;27246;52.376;4.628;2023-02-13T15:56:36;103396.59;;;9.43;77.00
24752;BME280;27246;52.376;4.628;2023-02-13T16:01:40;103408.59;;;9.41;77.24
24752;BME280;27246;52.376;4.628;2023-02-13T16:06:45;103398.00;;;9.48;77.29
24752;BME280;27246;52.376;4.628;2023-02-13T16:11:48;103400.13;;;9.45;77.32
24752;BME280;27246;52.376;4.628;2023-02-13T16:16:54;103397.69;;;9.40;78.04
24752;BME280;27246;52.376;4.628;2023-02-13T16:22:00;103389.22;;;9.43;78.11
24752;BME280;27246;52.376;4.628;2023-02-13T16:27:11;103391.44;;;9.38;78.35
24752;BME280;27246;52.376;4.628;2023-02-13T16:32:23;103385.50;;;9.31;78.89
24752;BME280;27246;52.376;4.628;2023-02-13T16:37:31;103380.78;;;9.33;79.33
24752;BME280;27246;52.376;4.628;2023-02-13T16:42:34;103377.69;;;9.25;79.57
24752;BME280;27246;52.376;4.628;2023-02-13T16:47:35;103378.03;;;9.33;79.63
24752;BME280;27246;52.376;4.628;2023-02-13T16:52:37;103384.53;;;9.32;79.56
24752;BME280;27246;52.376;4.628;2023-02-13T16:57:38;103380.13;;;9.30;79.15
24752;BME280;27246;52.376;4.628;2023-02-13T17:02:42;103385.63;;;9.30;79.50
24752;BME280;27246;52.376;4.628;2023-02-13T17:07:46;103389.69;;;9.24;79.89
24752;BME280;27246;52.376;4.628;2023-02-13T17:12:50;103388.94;;;9.22;80.17
24752;BME280;27246;52.376;4.628;2023-02-13T17:17:53;103389.81;;;9.23;79.83
24752;BME280;27246;52.376;4.628;2023-02-13T17:23:00;103399.38;;;9.17;80.46
24752;BME280;27246;52.376;4.628;2023-02-13T17:33:20;103399.06;;;9.09;80.63
24752;BME280;27246;52.376;4.628;2023-02-13T17:38:22;103396.53;;;9.06;80.34
24752;BME280;27246;52.376;4.628;2023-02-13T17:43:24;103394.34;;;8.98;80.88
24752;BME280;27246;52.376;4.628;2023-02-13T17:48:28;103393.44;;;8.97;81.13
24752;BME280;27246;52.376;4.628;2023-02-13T17:53:30;103401.28;;;8.91;81.30
24752;BME280;27246;52.376;4.628;2023-02-13T17:58:32;103390.94;;;8.94;81.52
24752;BME280;27246;52.376;4.628;2023-02-13T18:03:34;103399.53;;;8.90;81.53
24752;BME280;27246;52.376;4.628;2023-02-13T18:08:35;103392.16;;;8.90;81.48
24752;BME280;27246;52.376;4.628;2023-02-13T18:13:37;103393.38;;;8.86;81.26
24752;BME280;27246;52.376;4.628;2023-02-13T18:18:41;103394.03;;;8.77;81.42
24752;BME280;27246;52.376;4.628;2023-02-13T18:23:42;103395.34;;;8.71;81.43
24752;BME280;27246;52.376;4.628;2023-02-13T18:28:44;103405.69;;;8.68;81.53
24752;BME280;27246;52.376;4.628;2023-02-13T18:33:46;103392.50;;;8.60;81.74
24752;BME280;27246;52.376;4.628;2023-02-13T18:38:49;103395.44;;;8.57;81.76
24752;BME280;27246;52.376;4.628;2023-02-13T18:43:51;103401.38;;;8.51;82.10
24752;BME280;27246;52.376;4.628;2023-02-13T18:48:53;103394.56;;;8.44;82.44
24752;BME280;27246;52.376;4.628;2023-02-13T18:53:54;103392.91;;;8.41;82.09
24752;BME280;27246;52.376;4.628;2023-02-13T18:58:56;103394.88;;;8.39;82.63
24752;BME280;27246;52.376;4.628;2023-02-13T19:03:59;103383.25;;;8.35;82.54
24752;BME280;27246;52.376;4.628;2023-02-13T19:09:01;103393.88;;;8.27;82.76
24752;BME280;27246;52.376;4.628;2023-02-13T19:14:04;103392.53;;;8.20;83.08
24752;BME280;27246;52.376;4.628;2023-02-13T19:19:06;103386.47;;;8.15;83.20
24752;BME280;27246;52.376;4.628;2023-02-13T19:24:10;103385.81;;;8.11;83.34
24752;BME280;27246;52.376;4.628;2023-02-13T19:29:12;103396.81;;;8.11;83.13
24752;BME280;27246;52.376;4.628;2023-02-13T19:34:13;103389.97;;;8.04;83.37
24752;BME280;27246;52.376;4.628;2023-02-13T19:39:16;103392.94;;;8.01;83.67
24752;BME280;27246;52.376;4.628;2023-02-13T19:44:18;103388.66;;;7.97;83.53
24752;BME280;27246;52.376;4.628;2023-02-13T19:49:20;103396.88;;;7.97;83.80
24752;BME280;27246;52.376;4.628;2023-02-13T19:54:23;103398.63;;;7.98;84.22
24752;BME280;27246;52.376;4.628;2023-02-13T19:59:25;103395.09;;;7.96;84.21
24752;BME280;27246;52.376;4.628;2023-02-13T20:04:27;103401.78;;;7.92;84.68
24752;BME280;27246;52.376;4.628;2023-02-13T20:09:29;103397.69;;;7.85;84.10
24752;BME280;27246;52.376;4.628;2023-02-13T20:14:32;103394.16;;;7.82;84.27
24752;BME280;27246;52.376;4.628;2023-02-13T20:19:34;103394.72;;;7.75;84.16
24752;BME280;27246;52.376;4.628;2023-02-13T20:24:36;103403.22;;;7.70;84.68
24752;BME280;27246;52.376;4.628;2023-02-13T20:29:39;103406.75;;;7.72;84.86
24752;BME280;27246;52.376;4.628;2023-02-13T20:34:40;103414.22;;;7.70;84.78
24752;BME280;27246;52.376;4.628;2023-02-13T20:40:00;103410.50;;;7.71;85.42
24752;BME280;27246;52.376;4.628;2023-02-13T20:45:02;103407.16;;;7.66;85.79
24752;BME280;27246;52.376;4.628;2023-02-13T20:50:04;103411.41;;;7.57;85.56
24752;BME280;27246;52.376;4.628;2023-02-13T20:55:07;103404.28;;;7.55;85.39
24752;BME280;27246;52.376;4.628;2023-02-13T21:00:09;103405.34;;;7.52;85.47
24752;BME280;27246;52.376;4.628;2023-02-13T21:05:13;103402.91;;;7.48;85.35
24752;BME280;27246;52.376;4.628;2023-02-13T21:10:15;103406.66;;;7.47;85.26
24752;BME280;27246;52.376;4.628;2023-02-13T21:15:17;103401.53;;;7.40;85.59
24752;BME280;27246;52.376;4.628;2023-02-13T21:20:19;103412.13;;;7.18;85.60
24752;BME280;27246;52.376;4.628;2023-02-13T21:25:21;103417.59;;;7.04;85.52
24752;BME280;27246;52.376;4.628;2023-02-13T21:30:23;103413.81;;;7.06;85.51
24752;BME280;27246;52.376;4.628;2023-02-13T21:35:25;103415.38;;;7.10;85.46
24752;BME280;27246;52.376;4.628;2023-02-13T21:40:26;103422.13;;;7.05;85.38
24752;BME280;27246;52.376;4.628;2023-02-13T21:45:28;103410.38;;;7.02;85.06
24752;BME280;27246;52.376;4.628;2023-02-13T21:50:30;103413.81;;;7.06;85.41
24752;BME280;27246;52.376;4.628;2023-02-13T21:55:31;103401.94;;;7.06;85.48
24752;BME280;27246;52.376;4.628;2023-02-13T22:00:33;103404.69;;;7.06;85.60
24752;BME280;27246;52.376;4.628;2023-02-13T22:05:35;103401.75;;;7.09;86.25
24752;BME280;27246;52.376;4.628;2023-02-13T22:10:37;103399.13;;;7.07;86.85
24752;BME280;27246;52.376;4.628;2023-02-13T22:15:39;103393.72;;;7.06;86.66
24752;BME280;27246;52.376;4.628;2023-02-13T22:20:41;103395.69;;;7.04;86.42
24752;BME280;27246;52.376;4.628;2023-02-13T22:25:49;103390.59;;;6.97;85.96
24752;BME280;27246;52.376;4.628;2023-02-13T22:30:51;103377.91;;;6.82;85.88
24752;BME280;27246;52.376;4.628;2023-02-13T22:35:53;103380.72;;;6.80;85.91
24752;BME280;27246;52.376;4.628;2023-02-13T22:40:55;103374.47;;;6.78;85.82
24752;BME280;27246;52.376;4.628;2023-02-13T22:46:02;103374.84;;;6.72;85.64
24752;BME280;27246;52.376;4.628;2023-02-13T22:51:07;103379.72;;;6.67;85.49
24752;BME280;27246;52.376;4.628;2023-02-13T22:56:11;103377.91;;;6.68;85.85
24752;BME280;27246;52.376;4.628;2023-02-13T23:01:16;103379.56;;;6.70;86.54
24752;BME280;27246;52.376;4.628;2023-02-13T23:06:18;103379.72;;;6.67;86.16
24752;BME280;27246;52.376;4.628;2023-02-13T23:11:23;103380.72;;;6.52;85.15
24752;BME280;27246;52.376;4.628;2023-02-13T23:16:45;103375.69;;;6.30;85.03
24752;BME280;27246;52.376;4.628;2023-02-13T23:22:05;103365.66;;;6.14;85.14
24752;BME280;27246;52.376;4.628;2023-02-13T23:27:07;103369.28;;;6.15;85.55
24752;BME280;27246;52.376;4.628;2023-02-13T23:32:08;103360.44;;;6.26;85.06
24752;BME280;27246;52.376;4.628;2023-02-13T23:37:10;103362.06;;;6.14;85.37
24752;BME280;27246;52.376;4.628;2023-02-13T23:42:12;103364.41;;;6.20;84.89
24752;BME280;27246;52.376;4.628;2023-02-13T23:47:13;103367.91;;;6.08;84.41
24752;BME280;27246;52.376;4.628;2023-02-13T23:52:16;103354.94;;;6.11;84.34
24752;BME280;27246;52.376;4.628;2023-02-13T23:57:18;103361.28;;;6.12;84.36
